Time;durP1;ratioP1;P1;durP2;ratioP2;P2;SDS_P1;SDS_P2;PMS_P1;PMS_P2;Temp;Humidity;BMP_temperature;BMP_pressure;BME280_temperature;BME280_humidity;BME280_pressure;Samples;Min_cycle;Max_cycle;Signal;HPM_P1;HPM_P2
2019/11/17 00:01:29;;;;;;;9.07;8.17;;;;;;;20.19;44.90;100173.73;;;;-49
2019/11/17 00:04:29;;;;;;;8.90;8.00;;;;;;;20.18;44.95;100176.84;;;;-49
2019/11/17 00:07:29;;;;;;;8.67;7.77;;;;;;;20.16;44.97;100172.91;;;;-49
2019/11/17 00:10:29;;;;;;;8.50;7.67;;;;;;;20.14;44.97;100165.16;;;;-49
2019/11/17 00:13:29;;;;;;;9.03;8.13;;;;;;;20.13;44.87;100158.31;;;;-49
2019/11/17 00:16:29;;;;;;;8.81;7.90;;;;;;;20.11;44.97;100154.89;;;;-49
2019/11/17 00:19:29;;;;;;;8.49;7.67;;;;;;;20.09;44.96;100147.38;;;;-49
2019/11/17 00:22:29;;;;;;;8.37;7.57;;;;;;;20.08;44.94;100143.55;;;;-49
2019/11/17 00:25:35;;;;;;;8.83;7.93;;;;;;;20.05;44.97;100141.36;;;;-49
2019/11/17 00:28:29;;;;;;;8.43;7.63;;;;;;;20.05;44.95;100146.89;;;;-49
2019/11/17 00:31:29;;;;;;;8.57;7.63;;;;;;;20.03;44.94;100144.80;;;;-49
2019/11/17 00:34:29;;;;;;;8.48;7.68;;;;;;;20.02;44.96;100140.34;;;;-49
2019/11/17 00:37:29;;;;;;;8.03;7.26;;;;;;;20.01;44.93;100135.07;;;;-49
2019/11/17 00:40:29;;;;;;;8.30;7.50;;;;;;;20.00;44.96;100138.83;;;;-49
2019/11/17 00:43:29;;;;;;;8.35;7.55;;;;;;;19.97;44.94;100131.57;;;;-49
2019/11/17 00:46:29;;;;;;;8.19;7.38;;;;;;;19.97;45.02;100125.00;;;;-49
2019/11/17 00:49:29;;;;;;;7.91;7.14;;;;;;;19.95;44.96;100120.50;;;;-49
2019/11/17 00:52:29;;;;;;;8.03;7.23;;;;;;;19.93;45.00;100113.99;;;;-49
2019/11/17 00:55:29;;;;;;;8.62;7.76;;;;;;;19.93;45.12;100111.11;;;;-49
2019/11/17 00:58:29;;;;;;;8.14;7.34;;;;;;;19.90;45.04;100110.59;;;;-49
2019/11/17 01:01:29;;;;;;;8.17;7.37;;;;;;;19.90;45.14;100108.75;;;;-49
2019/11/17 01:04:29;;;;;;;7.99;7.19;;;;;;;19.89;45.10;100100.84;;;;-49
2019/11/17 01:07:29;;;;;;;8.43;7.63;;;;;;;19.87;45.02;100098.69;;;;-49
2019/11/17 01:10:29;;;;;;;8.23;7.43;;;;;;;19.86;44.97;100095.87;;;;-50
2019/11/17 01:13:29;;;;;;;7.79;7.01;;;;;;;19.85;45.00;100096.77;;;;-49
2019/11/17 01:16:29;;;;;;;7.69;6.92;;;;;;;19.83;45.05;100087.81;;;;-49
2019/11/17 01:19:29;;;;;;;7.34;6.64;;;;;;;19.82;45.07;100083.92;;;;-49
2019/11/17 01:22:29;;;;;;;7.51;6.81;;;;;;;19.81;45.06;100077.62;;;;-49
2019/11/17 01:25:29;;;;;;;7.67;6.97;;;;;;;19.79;45.09;100079.12;;;;-49
2019/11/17 01:28:29;;;;;;;7.63;6.88;;;;;;;19.79;45.13;100078.11;;;;-50
2019/11/17 01:31:29;;;;;;;7.42;6.72;;;;;;;19.77;45.09;100080.66;;;;-49
2019/11/17 01:34:29;;;;;;;7.74;7.04;;;;;;;19.76;45.06;100078.67;;;;-49
2019/11/17 01:37:29;;;;;;;7.84;7.07;;;;;;;19.74;45.07;100075.52;;;;-50
2019/11/17 01:40:49;;;;;;;7.41;6.71;;;;;;;19.73;45.14;100073.41;;;;-49
2019/11/17 01:43:29;;;;;;;7.07;6.33;;;;;;;19.73;45.07;100074.54;;;;-49
2019/11/17 01:46:29;;;;;;;7.63;6.93;;;;;;;19.72;45.06;100076.78;;;;-49
2019/11/17 01:49:29;;;;;;;7.40;6.70;;;;;;;19.70;45.20;100072.69;;;;-49
2019/11/17 01:52:29;;;;;;;7.57;6.87;;;;;;;19.70;45.26;100064.04;;;;-49
2019/11/17 01:55:29;;;;;;;7.45;6.75;;;;;;;19.68;45.37;100050.56;;;;-49
2019/11/17 01:58:29;;;;;;;7.78;6.90;;;;;;;19.68;45.16;100039.94;;;;-49
2019/11/17 02:01:29;;;;;;;7.07;6.37;;;;;;;19.66;45.23;100030.92;;;;-49
2019/11/17 02:04:29;;;;;;;7.26;6.56;;;;;;;19.65;45.15;100016.28;;;;-49
2019/11/17 02:07:29;;;;;;;7.05;6.36;;;;;;;19.64;45.13;100001.33;;;;-49
2019/11/17 02:10:29;;;;;;;6.95;6.30;;;;;;;19.64;45.24;99999.76;;;;-49
2019/11/17 02:13:29;;;;;;;7.40;6.65;;;;;;;19.62;45.07;99997.41;;;;-49
2019/11/17 02:16:29;;;;;;;7.04;6.34;;;;;;;19.60;45.15;99996.86;;;;-49
2019/11/17 02:19:29;;;;;;;6.65;6.05;;;;;;;19.60;45.24;99989.39;;;;-49
2019/11/17 02:22:29;;;;;;;7.12;6.49;;;;;;;19.59;45.29;99986.78;;;;-49
2019/11/17 02:25:29;;;;;;;7.22;6.57;;;;;;;19.58;45.19;99989.16;;;;-50
2019/11/17 02:28:29;;;;;;;7.48;6.78;;;;;;;19.56;45.24;99984.66;;;;-49
2019/11/17 02:31:29;;;;;;;6.77;6.17;;;;;;;19.55;45.31;99993.73;;;;-49
2019/11/17 02:34:29;;;;;;;6.81;6.21;;;;;;;19.55;45.14;99997.42;;;;-49
2019/11/17 02:37:31;;;;;;;6.69;6.09;;;;;;;19.53;45.23;99993.77;;;;-49
2019/11/17 02:40:29;;;;;;;6.88;6.28;;;;;;;19.53;45.28;100007.83;;;;-49
2019/11/17 02:43:29;;;;;;;6.77;6.17;;;;;;;19.51;45.35;100004.41;;;;-49
2019/11/17 02:46:29;;;;;;;7.15;6.45;;;;;;;19.51;45.23;100000.28;;;;-49
2019/11/17 02:49:29;;;;;;;6.83;6.17;;;;;;;19.48;45.18;99991.56;;;;-49
2019/11/17 02:52:29;;;;;;;7.05;6.36;;;;;;;19.49;45.20;99987.02;;;;-49
2019/11/17 02:55:29;;;;;;;6.72;6.09;;;;;;;19.48;45.32;99980.95;;;;-49
2019/11/17 02:58:29;;;;;;;6.60;6.00;;;;;;;19.47;45.17;99979.81;;;;-49
2019/11/17 03:01:29;;;;;;;6.96;6.31;;;;;;;19.47;45.14;99980.38;;;;-49
2019/11/17 03:04:29;;;;;;;6.97;6.27;;;;;;;19.45;45.30;99977.72;;;;-49
2019/11/17 03:07:29;;;;;;;6.89;6.19;;;;;;;19.45;45.20;99979.47;;;;-49
2019/11/17 03:10:29;;;;;;;6.70;6.05;;;;;;;19.43;45.20;99972.16;;;;-49
2019/11/17 03:13:29;;;;;;;6.57;5.97;;;;;;;19.42;45.22;99967.40;;;;-49
2019/11/17 03:16:29;;;;;;;6.74;6.14;;;;;;;19.41;45.30;99963.87;;;;-49
2019/11/17 03:19:29;;;;;;;6.64;6.04;;;;;;;19.40;45.36;99970.77;;;;-49
2019/11/17 03:22:29;;;;;;;6.69;6.07;;;;;;;19.40;45.26;99972.34;;;;-49
2019/11/17 03:25:29;;;;;;;6.93;6.32;;;;;;;19.39;45.29;99977.84;;;;-49
2019/11/17 03:28:29;;;;;;;6.93;6.23;;;;;;;19.37;45.26;99985.06;;;;-49
2019/11/17 03:31:29;;;;;;;6.81;6.15;;;;;;;19.35;45.21;99983.25;;;;-50
2019/11/17 03:34:29;;;;;;;6.68;6.06;;;;;;;19.35;45.37;99985.39;;;;-49
2019/11/17 03:37:29;;;;;;;6.47;5.87;;;;;;;19.34;45.32;99988.73;;;;-49
2019/11/17 03:40:29;;;;;;;6.63;6.03;;;;;;;19.34;45.18;99990.58;;;;-49
2019/11/17 03:43:29;;;;;;;6.96;6.24;;;;;;;19.33;45.39;100002.43;;;;-49
2019/11/17 03:46:29;;;;;;;6.57;5.97;;;;;;;19.31;45.36;99995.83;;;;-49
2019/11/17 03:49:29;;;;;;;6.76;6.12;;;;;;;19.31;45.28;100000.98;;;;-49
2019/11/17 03:52:29;;;;;;;6.83;6.22;;;;;;;19.31;45.39;99997.62;;;;-49
2019/11/17 03:55:29;;;;;;;6.71;6.11;;;;;;;19.28;45.41;99989.08;;;;-49
2019/11/17 03:58:29;;;;;;;6.41;5.83;;;;;;;19.29;45.21;99992.80;;;;-49
2019/11/17 04:02:29;;;;;;;6.45;5.85;;;;;;;19.26;45.36;100006.02;;;;-49
2019/11/17 04:06:29;;;;;;;6.45;5.85;;;;;;;19.26;45.42;100008.09;;;;-49
2019/11/17 04:09:29;;;;;;;6.59;5.99;;;;;;;19.25;45.33;100019.77;;;;-49
2019/11/17 04:12:29;;;;;;;6.36;5.76;;;;;;;19.24;45.45;100022.91;;;;-49
2019/11/17 04:15:29;;;;;;;6.49;5.89;;;;;;;19.23;45.29;100031.84;;;;-49
2019/11/17 04:18:43;;;;;;;6.35;5.76;;;;;;;19.22;45.43;100026.52;;;;-49
2019/11/17 04:21:29;;;;;;;6.56;5.96;;;;;;;19.22;45.37;100014.91;;;;-49
2019/11/17 04:24:29;;;;;;;6.44;5.87;;;;;;;19.20;45.34;100011.70;;;;-50
2019/11/17 04:27:29;;;;;;;6.37;5.77;;;;;;;19.20;45.40;100017.00;;;;-50
2019/11/17 04:30:29;;;;;;;6.52;5.92;;;;;;;19.20;45.46;100014.89;;;;-50
2019/11/17 04:33:29;;;;;;;6.65;6.05;;;;;;;19.18;45.42;100007.11;;;;-49
2019/11/17 04:36:29;;;;;;;6.39;5.79;;;;;;;19.18;45.33;99999.81;;;;-49
2019/11/17 04:39:29;;;;;;;6.80;6.20;;;;;;;19.18;45.22;99986.19;;;;-49
2019/11/17 04:42:29;;;;;;;6.53;5.90;;;;;;;19.18;45.34;99974.41;;;;-49
2019/11/17 04:47:29;;;;;;;6.35;5.75;;;;;;;19.19;45.35;99957.54;;;;-49
2019/11/17 04:50:29;;;;;;;6.63;6.03;;;;;;;19.21;45.31;99951.48;;;;-49
2019/11/17 04:53:29;;;;;;;6.48;5.88;;;;;;;19.23;45.32;99943.02;;;;-49
2019/11/17 04:56:28;;;;;;;6.33;5.75;;;;;;;19.24;45.18;99937.87;;;;-49
2019/11/17 04:59:28;;;;;;;6.52;5.92;;;;;;;19.27;45.43;99935.97;;;;-49
2019/11/17 05:02:29;;;;;;;6.37;5.77;;;;;;;19.28;45.52;99931.82;;;;-49
2019/11/17 05:05:29;;;;;;;6.25;5.67;;;;;;;19.30;45.81;99934.07;;;;-49
2019/11/17 05:08:29;;;;;;;5.79;5.28;;;;;;;19.33;45.85;99933.91;;;;-49
2019/11/17 05:11:29;;;;;;;6.23;5.71;;;;;;;19.36;45.98;99930.57;;;;-49
2019/11/17 05:14:29;;;;;;;6.07;5.55;;;;;;;19.39;45.92;99929.01;;;;-49
2019/11/17 05:17:29;;;;;;;5.68;5.18;;;;;;;19.42;46.02;99931.23;;;;-49
2019/11/17 05:20:29;;;;;;;5.85;5.35;;;;;;;19.45;45.97;99937.12;;;;-49
2019/11/17 05:23:29;;;;;;;5.86;5.30;;;;;;;19.48;45.92;99932.72;;;;-49
2019/11/17 05:26:38;;;;;;;6.07;5.47;;;;;;;19.52;45.92;99924.45;;;;-49
2019/11/17 05:29:29;;;;;;;5.94;5.36;;;;;;;19.55;45.83;99921.48;;;;-49
2019/11/17 05:32:29;;;;;;;5.85;5.35;;;;;;;19.58;45.86;99919.58;;;;-49
2019/11/17 05:35:29;;;;;;;5.67;5.17;;;;;;;19.60;45.83;99916.63;;;;-49
2019/11/17 05:38:29;;;;;;;5.60;5.10;;;;;;;19.62;45.87;99919.22;;;;-49
2019/11/17 05:41:29;;;;;;;5.95;5.45;;;;;;;19.65;45.92;99914.93;;;;-49
2019/11/17 05:44:29;;;;;;;5.36;4.94;;;;;;;19.67;45.88;99899.25;;;;-49
2019/11/17 05:47:29;;;;;;;6.09;5.49;;;;;;;19.68;45.88;99902.58;;;;-49
2019/11/17 05:50:29;;;;;;;5.51;5.01;;;;;;;19.70;45.84;99904.22;;;;-49
2019/11/17 05:53:29;;;;;;;5.60;5.10;;;;;;;19.70;46.03;99903.21;;;;-49
2019/11/17 05:56:29;;;;;;;5.89;5.32;;;;;;;19.71;45.80;99908.44;;;;-49
2019/11/17 05:59:28;;;;;;;5.65;5.15;;;;;;;19.72;45.92;99915.44;;;;-49
2019/11/17 06:02:29;;;;;;;5.38;4.88;;;;;;;19.71;45.99;99911.99;;;;-49
2019/11/17 06:05:28;;;;;;;5.49;4.99;;;;;;;19.72;46.00;99910.48;;;;-49
2019/11/17 06:08:29;;;;;;;5.73;5.23;;;;;;;19.72;45.86;99901.27;;;;-50
2019/11/17 06:14:29;;;;;;;6.09;5.49;;;;;;;19.71;46.03;99902.11;;;;-49
2019/11/17 06:17:29;;;;;;;5.79;5.19;;;;;;;19.71;46.06;99898.75;;;;-49
2019/11/17 06:20:28;;;;;;;5.79;5.23;;;;;;;19.71;45.95;99896.98;;;;-49
2019/11/17 06:23:29;;;;;;;5.87;5.31;;;;;;;19.71;45.93;99904.19;;;;-48
2019/11/17 06:26:29;;;;;;;5.75;5.24;;;;;;;19.71;46.05;99917.72;;;;-49
2019/11/17 06:29:29;;;;;;;5.76;5.26;;;;;;;19.71;46.01;99917.72;;;;-49
2019/11/17 06:32:29;;;;;;;5.57;5.07;;;;;;;19.70;45.55;99906.59;;;;-49
2019/11/17 06:35:28;;;;;;;5.81;5.31;;;;;;;19.69;45.93;99911.08;;;;-49
2019/11/17 06:38:29;;;;;;;5.93;5.43;;;;;;;19.69;45.85;99901.09;;;;-49
2019/11/17 06:41:28;;;;;;;5.53;5.03;;;;;;;19.69;45.84;99884.52;;;;-49
2019/11/17 06:44:28;;;;;;;5.73;5.23;;;;;;;19.69;45.51;99876.58;;;;-49
2019/11/17 06:47:29;;;;;;;5.97;5.45;;;;;;;19.68;45.72;99874.70;;;;-49
2019/11/17 06:50:29;;;;;;;5.99;5.49;;;;;;;19.68;45.51;99879.39;;;;-49
2019/11/17 06:53:29;;;;;;;5.66;5.15;;;;;;;19.68;45.69;99888.34;;;;-49
2019/11/17 06:56:29;;;;;;;5.84;5.24;;;;;;;19.68;45.78;99899.22;;;;-49
2019/11/17 06:59:29;;;;;;;5.57;5.07;;;;;;;19.68;45.69;99901.73;;;;-49
2019/11/17 07:02:28;;;;;;;5.61;5.11;;;;;;;19.68;45.76;99896.78;;;;-49
2019/11/17 07:05:28;;;;;;;5.67;5.12;;;;;;;19.68;45.82;99894.94;;;;-49
2019/11/17 07:08:29;;;;;;;5.40;4.90;;;;;;;19.67;45.61;99894.59;;;;-49
2019/11/17 07:11:29;;;;;;;5.49;4.99;;;;;;;19.69;45.69;99892.02;;;;-49
2019/11/17 07:14:29;;;;;;;5.37;4.87;;;;;;;19.69;45.50;99894.36;;;;-50
2019/11/17 07:17:29;;;;;;;5.31;4.81;;;;;;;19.68;45.79;99901.67;;;;-49
2019/11/17 07:20:28;;;;;;;5.49;4.99;;;;;;;19.68;45.55;99893.53;;;;-49
2019/11/17 07:23:28;;;;;;;5.45;4.95;;;;;;;19.69;45.69;99891.02;;;;-49
2019/11/17 07:26:29;;;;;;;5.34;4.84;;;;;;;19.69;45.69;99892.19;;;;-49
2019/11/17 07:29:29;;;;;;;5.33;4.83;;;;;;;19.68;45.75;99897.98;;;;-50
2019/11/17 07:32:29;;;;;;;5.16;4.66;;;;;;;19.68;45.50;99893.63;;;;-49
2019/11/17 07:35:28;;;;;;;5.27;4.79;;;;;;;19.69;45.74;99882.07;;;;-49
2019/11/17 07:38:28;;;;;;;5.08;4.65;;;;;;;19.70;45.80;99886.69;;;;-49
2019/11/17 07:41:28;;;;;;;5.68;5.18;;;;;;;19.69;45.74;99883.58;;;;-49
2019/11/17 07:44:29;;;;;;;5.45;4.95;;;;;;;19.69;45.79;99878.38;;;;-49
2019/11/17 07:47:29;;;;;;;5.30;4.80;;;;;;;19.70;45.75;99869.77;;;;-50
2019/11/17 07:50:29;;;;;;;4.94;4.54;;;;;;;19.70;45.65;99866.96;;;;-49
2019/11/17 07:53:29;;;;;;;5.06;4.66;;;;;;;19.70;45.70;99851.38;;;;-49
2019/11/17 07:56:29;;;;;;;5.31;4.81;;;;;;;19.69;45.78;99843.41;;;;-49
2019/11/17 07:59:28;;;;;;;5.25;4.75;;;;;;;19.70;45.63;99846.86;;;;-49
2019/11/17 08:02:28;;;;;;;5.16;4.66;;;;;;;19.70;45.73;99841.56;;;;-49
2019/11/17 08:05:28;;;;;;;5.13;4.63;;;;;;;19.69;45.78;99839.72;;;;-49
2019/11/17 08:08:28;;;;;;;5.13;4.63;;;;;;;19.69;45.78;99823.64;;;;-49
2019/11/17 08:11:28;;;;;;;5.10;4.49;;;;;;;19.70;45.69;99820.05;;;;-49
2019/11/17 08:14:29;;;;;;;4.97;4.52;;;;;;;19.70;45.74;99818.37;;;;-49
2019/11/17 08:17:28;;;;;;;4.73;4.33;;;;;;;19.70;45.77;99802.77;;;;-49
2019/11/17 08:20:29;;;;;;;5.31;4.71;;;;;;;19.70;45.67;99785.61;;;;-49
2019/11/17 08:23:28;;;;;;;5.13;4.63;;;;;;;19.70;45.61;99767.35;;;;-49
2019/11/17 08:26:29;;;;;;;4.96;4.56;;;;;;;19.70;45.61;99758.00;;;;-49
2019/11/17 08:29:29;;;;;;;5.11;4.65;;;;;;;19.69;45.75;99738.54;;;;-49
2019/11/17 08:32:28;;;;;;;5.17;4.67;;;;;;;19.70;45.68;99732.84;;;;-49
2019/11/17 08:35:29;;;;;;;5.15;4.65;;;;;;;19.70;45.65;99750.27;;;;-49
2019/11/17 08:38:29;;;;;;;5.11;4.71;;;;;;;19.70;45.62;99747.02;;;;-49
2019/11/17 08:41:29;;;;;;;5.21;4.71;;;;;;;19.70;45.62;99736.53;;;;-49
2019/11/17 08:44:29;;;;;;;4.83;4.43;;;;;;;19.69;45.59;99749.77;;;;-49
2019/11/17 08:47:29;;;;;;;6.59;4.80;;;;;;;19.70;45.55;99752.47;;;;-47
2019/11/17 08:50:29;;;;;;;5.01;4.51;;;;;;;19.73;45.44;99742.92;;;;-50
2019/11/17 08:53:29;;;;;;;5.02;4.53;;;;;;;19.76;45.52;99735.65;;;;-51
2019/11/17 08:56:29;;;;;;;5.25;4.75;;;;;;;19.80;45.69;99734.16;;;;-50
2019/11/17 08:59:28;;;;;;;4.93;4.43;;;;;;;19.83;45.73;99726.05;;;;-47
2019/11/17 09:02:29;;;;;;;5.55;4.73;;;;;;;19.86;45.68;99728.25;;;;-47
2019/11/17 09:05:29;;;;;;;4.93;4.47;;;;;;;19.90;45.67;99720.16;;;;-51
2019/11/17 09:08:29;;;;;;;4.89;4.39;;;;;;;19.93;45.64;99702.66;;;;-51
2019/11/17 09:11:29;;;;;;;4.91;4.45;;;;;;;19.95;45.66;99693.23;;;;-51
2019/11/17 09:14:29;;;;;;;4.61;4.21;;;;;;;19.98;45.53;99691.69;;;;-51
2019/11/17 09:17:29;;;;;;;4.78;4.23;;;;;;;20.01;45.42;99688.56;;;;-51
2019/11/17 09:20:29;;;;;;;5.16;4.56;;;;;;;19.97;44.53;99677.52;;;;-51
2019/11/17 09:23:29;;;;;;;11.29;9.47;;;;;;;19.58;41.28;99664.83;;;;-47
2019/11/17 09:26:28;;;;;;;10.55;8.41;;;;;;;19.73;42.67;99654.70;;;;-49
2019/11/17 09:29:29;;;;;;;9.36;6.74;;;;;;;19.82;42.67;99671.16;;;;-50
2019/11/17 09:32:28;;;;;;;14.53;6.35;;;;;;;19.92;43.97;99672.67;;;;-48
2019/11/17 09:35:29;;;;;;;10.07;5.52;;;;;;;20.00;44.73;99667.18;;;;-53
2019/11/17 09:38:28;;;;;;;10.24;5.58;;;;;;;20.07;44.96;99659.67;;;;-45
2019/11/17 09:41:28;;;;;;;7.63;5.01;;;;;;;20.14;45.25;99649.05;;;;-48
2019/11/17 09:44:28;;;;;;;8.87;5.10;;;;;;;20.20;45.33;99650.16;;;;-47
2019/11/17 09:47:29;;;;;;;9.82;4.67;;;;;;;20.26;45.33;99645.13;;;;-48
2019/11/17 09:50:29;;;;;;;8.69;4.88;;;;;;;20.31;45.45;99629.38;;;;-50
2019/11/17 09:53:29;;;;;;;7.95;4.45;;;;;;;20.36;45.54;99626.87;;;;-48
2019/11/17 09:56:29;;;;;;;9.95;4.39;;;;;;;20.41;45.28;99621.70;;;;-52
2019/11/17 09:59:28;;;;;;;12.25;4.29;;;;;;;20.43;45.55;99619.17;;;;-51
2019/11/17 10:02:28;;;;;;;10.43;4.49;;;;;;;20.52;46.25;99611.07;;;;-49
2019/11/17 10:05:29;;;;;;;7.49;4.19;;;;;;;20.57;46.31;99599.73;;;;-54
2019/11/17 10:08:29;;;;;;;9.23;4.42;;;;;;;20.59;45.58;99592.63;;;;-54
2019/11/17 10:11:29;;;;;;;6.33;4.14;;;;;;;20.60;45.40;99585.21;;;;-52
2019/11/17 10:14:29;;;;;;;7.27;3.69;;;;;;;20.62;45.60;99603.88;;;;-51
2019/11/17 10:17:29;;;;;;;8.76;4.13;;;;;;;20.65;45.60;99624.50;;;;-52
2019/11/17 10:20:29;;;;;;;5.89;4.07;;;;;;;20.68;45.62;99634.31;;;;-51
2019/11/17 10:23:28;;;;;;;6.15;4.07;;;;;;;20.71;45.40;99634.48;;;;-50
2019/11/17 10:26:28;;;;;;;5.95;3.73;;;;;;;20.73;45.49;99622.29;;;;-48
2019/11/17 10:29:28;;;;;;;9.61;4.08;;;;;;;20.77;45.49;99611.15;;;;-45
2019/11/17 10:32:28;;;;;;;7.88;4.03;;;;;;;20.79;45.15;99597.91;;;;-44
2019/11/17 10:35:29;;;;;;;6.47;3.79;;;;;;;20.81;45.54;99561.48;;;;-51
2019/11/17 10:38:29;;;;;;;4.51;3.99;;;;;;;20.82;45.57;99539.31;;;;-48
2019/11/17 10:41:29;;;;;;;5.68;3.66;;;;;;;20.85;45.65;99538.13;;;;-54
2019/11/17 10:44:29;;;;;;;4.39;3.64;;;;;;;20.88;45.62;99524.66;;;;-49
2019/11/17 10:47:29;;;;;;;5.55;3.49;;;;;;;20.89;45.49;99517.81;;;;-51
2019/11/17 10:50:29;;;;;;;4.19;3.57;;;;;;;20.91;45.45;99507.38;;;;-48
2019/11/17 10:53:28;;;;;;;4.95;3.94;;;;;;;20.93;45.65;99535.27;;;;-50
2019/11/17 10:56:29;;;;;;;4.42;3.79;;;;;;;20.94;45.64;99546.46;;;;-45
2019/11/17 10:59:28;;;;;;;5.40;3.67;;;;;;;20.94;45.48;99515.75;;;;-47
2019/11/17 11:02:28;;;;;;;12.95;3.91;;;;;;;20.96;45.63;99520.09;;;;-54
2019/11/17 11:05:28;;;;;;;4.51;3.83;;;;;;;20.97;45.69;99526.66;;;;-49
2019/11/17 11:08:29;;;;;;;4.03;3.59;;;;;;;20.99;45.60;99519.48;;;;-57
2019/11/17 11:11:28;;;;;;;4.40;3.69;;;;;;;21.00;45.59;99498.59;;;;-49
2019/11/17 11:14:28;;;;;;;3.78;3.38;;;;;;;21.03;45.61;99494.97;;;;-52
2019/11/17 11:17:29;;;;;;;3.82;3.31;;;;;;;21.05;45.87;99489.47;;;;-48
2019/11/17 11:20:29;;;;;;;4.47;3.36;;;;;;;21.07;45.58;99498.99;;;;-50
2019/11/17 11:23:28;;;;;;;4.17;3.61;;;;;;;21.10;45.83;99494.52;;;;-50
2019/11/17 11:26:28;;;;;;;4.67;3.55;;;;;;;21.10;45.65;99477.59;;;;-49
2019/11/17 11:29:29;;;;;;;6.91;3.15;;;;;;;21.12;45.59;99477.95;;;;-51
2019/11/17 11:32:28;;;;;;;4.44;3.46;;;;;;;21.13;45.58;99475.72;;;;-51
2019/11/17 11:35:28;;;;;;;4.11;3.39;;;;;;;21.14;45.57;99479.74;;;;-49
2019/11/17 11:38:29;;;;;;;4.43;3.34;;;;;;;21.16;45.69;99488.44;;;;-50
2019/11/17 11:41:29;;;;;;;3.97;3.45;;;;;;;21.18;45.56;99485.80;;;;-51
2019/11/17 11:44:29;;;;;;;3.98;3.08;;;;;;;21.20;45.55;99470.57;;;;-48
2019/11/17 11:47:29;;;;;;;3.49;3.19;;;;;;;21.20;45.43;99470.97;;;;-48
2019/11/17 11:50:28;;;;;;;3.73;3.29;;;;;;;21.22;45.56;99477.16;;;;-51
2019/11/17 11:53:29;;;;;;;3.77;3.39;;;;;;;21.25;45.52;99478.80;;;;-49
2019/11/17 11:56:29;;;;;;;4.12;3.27;;;;;;;21.22;45.35;99476.31;;;;-49
2019/11/17 11:59:29;;;;;;;3.80;3.16;;;;;;;21.22;45.34;99468.67;;;;-49
2019/11/17 12:02:28;;;;;;;5.32;3.21;;;;;;;21.21;45.32;99457.06;;;;-49
2019/11/17 12:05:29;;;;;;;3.48;3.18;;;;;;;21.20;45.34;99457.12;;;;-49
2019/11/17 12:08:29;;;;;;;4.14;3.22;;;;;;;21.21;45.30;99446.81;;;;-49
2019/11/17 12:11:29;;;;;;;3.50;2.98;;;;;;;21.19;45.33;99425.20;;;;-49
2019/11/17 12:14:28;;;;;;;3.27;2.89;;;;;;;21.19;45.25;99405.57;;;;-49
2019/11/17 12:17:29;;;;;;;3.49;3.12;;;;;;;21.18;45.28;99395.30;;;;-49
2019/11/17 12:20:29;;;;;;;3.14;2.84;;;;;;;21.18;45.28;99389.09;;;;-50
2019/11/17 12:23:29;;;;;;;3.43;3.06;;;;;;;21.18;45.22;99383.12;;;;-49
2019/11/17 12:26:28;;;;;;;3.76;2.96;;;;;;;21.17;45.27;99390.32;;;;-49
2019/11/17 12:29:28;;;;;;;3.17;2.87;;;;;;;21.16;45.21;99398.53;;;;-49
2019/11/17 12:32:28;;;;;;;3.31;2.82;;;;;;;21.15;45.21;99395.17;;;;-49
2019/11/17 12:35:29;;;;;;;3.15;2.85;;;;;;;21.16;45.10;99383.92;;;;-49
2019/11/17 12:38:29;;;;;;;3.83;2.92;;;;;;;21.15;45.17;99373.25;;;;-49
2019/11/17 12:41:29;;;;;;;3.11;2.81;;;;;;;21.14;45.19;99369.87;;;;-49
2019/11/17 12:44:29;;;;;;;4.10;2.94;;;;;;;21.15;45.16;99369.32;;;;-49
2019/11/17 12:47:28;;;;;;;3.03;2.75;;;;;;;21.15;45.09;99369.22;;;;-49
2019/11/17 12:50:28;;;;;;;3.22;2.88;;;;;;;21.13;45.11;99357.09;;;;-49
2019/11/17 12:53:29;;;;;;;3.29;2.99;;;;;;;21.13;45.13;99349.53;;;;-49
2019/11/17 12:56:28;;;;;;;2.82;2.62;;;;;;;21.13;45.16;99348.02;;;;-49
2019/11/17 12:59:29;;;;;;;3.20;2.86;;;;;;;21.13;45.23;99354.34;;;;-47
2019/11/17 13:02:29;;;;;;;3.03;2.66;;;;;;;21.13;45.17;99360.52;;;;-47
2019/11/17 13:05:29;;;;;;;3.27;2.87;;;;;;;21.13;45.22;99352.73;;;;-56
2019/11/17 13:08:29;;;;;;;3.17;2.87;;;;;;;21.12;45.23;99350.69;;;;-56
2019/11/17 13:11:28;;;;;;;3.03;2.74;;;;;;;21.14;45.15;99348.05;;;;-49
2019/11/17 13:14:28;;;;;;;3.25;2.69;;;;;;;21.13;45.23;99350.88;;;;-47
2019/11/17 13:17:28;;;;;;;2.80;2.60;;;;;;;21.14;45.16;99354.42;;;;-47
2019/11/17 13:20:28;;;;;;;3.64;2.67;;;;;;;21.14;45.13;99356.54;;;;-47
2019/11/17 13:23:28;;;;;;;2.84;2.59;;;;;;;21.14;45.24;99351.41;;;;-50
2019/11/17 13:26:29;;;;;;;2.93;2.63;;;;;;;21.15;45.14;99348.07;;;;-50
2019/11/17 13:29:28;;;;;;;2.90;2.68;;;;;;;21.15;45.03;99343.88;;;;-46
2019/11/17 13:32:28;;;;;;;3.85;2.61;;;;;;;21.18;45.48;99330.40;;;;-50
2019/11/17 13:35:28;;;;;;;2.82;2.62;;;;;;;21.19;45.49;99327.16;;;;-51
2019/11/17 13:38:29;;;;;;;2.79;2.55;;;;;;;21.22;45.61;99333.34;;;;-50
2019/11/17 13:41:28;;;;;;;2.81;2.58;;;;;;;21.24;45.47;99331.69;;;;-49
2019/11/17 13:44:28;;;;;;;3.80;2.77;;;;;;;21.28;45.46;99326.46;;;;-51
2019/11/17 13:47:28;;;;;;;7.91;2.95;;;;;;;21.31;45.69;99323.66;;;;-50
2019/11/17 13:50:28;;;;;;;5.49;2.87;;;;;;;21.35;45.64;99319.30;;;;-59
2019/11/17 13:53:29;;;;;;;9.53;3.09;;;;;;;21.37;45.45;99318.27;;;;-50
2019/11/17 13:56:29;;;;;;;6.47;2.87;;;;;;;21.42;45.70;99309.59;;;;-58
2019/11/17 13:59:29;;;;;;;6.51;3.09;;;;;;;21.41;45.39;99305.73;;;;-47
2019/11/17 14:02:28;;;;;;;9.08;2.97;;;;;;;21.44;45.54;99300.89;;;;-48
2019/11/17 14:05:28;;;;;;;5.86;2.87;;;;;;;21.46;45.70;99294.45;;;;-50
2019/11/17 14:08:29;;;;;;;12.91;2.90;;;;;;;21.48;45.69;99302.97;;;;-48
2019/11/17 14:11:29;;;;;;;4.09;2.55;;;;;;;21.53;45.81;99306.44;;;;-48
2019/11/17 14:14:29;;;;;;;5.53;2.51;;;;;;;21.55;45.86;99305.78;;;;-48
2019/11/17 14:17:29;;;;;;;6.21;2.57;;;;;;;21.55;45.87;99297.22;;;;-47
2019/11/17 14:20:28;;;;;;;4.95;2.62;;;;;;;21.58;45.90;99292.02;;;;-50
2019/11/17 14:23:28;;;;;;;3.99;2.56;;;;;;;21.60;46.02;99302.72;;;;-50
2019/11/17 14:26:28;;;;;;;5.53;2.48;;;;;;;21.64;45.98;99302.09;;;;-53
2019/11/17 14:29:28;;;;;;;9.21;5.01;;;;;;;21.36;42.95;99294.90;;;;-47
2019/11/17 14:32:29;;;;;;;7.67;6.25;;;;;;;21.21;42.69;99285.56;;;;-49
2019/11/17 14:35:28;;;;;;;9.99;4.76;;;;;;;21.30;43.49;99279.58;;;;-48
2019/11/17 14:38:28;;;;;;;8.87;4.17;;;;;;;21.37;44.14;99272.80;;;;-47
2019/11/17 14:41:29;;;;;;;6.39;3.77;;;;;;;21.43;44.41;99276.12;;;;-48
2019/11/17 14:44:29;;;;;;;4.15;3.23;;;;;;;21.46;44.48;99272.70;;;;-48
2019/11/17 14:47:28;;;;;;;4.69;2.96;;;;;;;21.51;44.75;99273.30;;;;-46
2019/11/17 14:50:29;;;;;;;8.77;3.07;;;;;;;21.55;44.84;99274.30;;;;-49
2019/11/17 14:53:28;;;;;;;8.61;2.95;;;;;;;21.56;44.87;99267.91;;;;-45
2019/11/17 14:56:28;;;;;;;2.85;2.55;;;;;;;21.58;44.99;99265.02;;;;-45
2019/11/17 14:59:28;;;;;;;4.41;2.70;;;;;;;21.61;44.97;99273.98;;;;-50
2019/11/17 15:02:28;;;;;;;6.24;2.79;;;;;;;21.61;45.05;99274.24;;;;-51
2019/11/17 15:05:28;;;;;;;3.66;2.81;;;;;;;21.61;45.07;99260.90;;;;-48
2019/11/17 15:08:29;;;;;;;4.69;2.41;;;;;;;21.63;45.08;99249.61;;;;-50
2019/11/17 15:11:28;;;;;;;3.11;2.56;;;;;;;21.67;45.31;99254.42;;;;-49
2019/11/17 15:14:28;;;;;;;4.43;2.37;;;;;;;21.67;45.25;99238.82;;;;-49
2019/11/17 15:17:29;;;;;;;7.59;5.53;;;;;;;21.46;42.68;99222.33;;;;-48
2019/11/17 15:20:28;;;;;;;8.67;6.59;;;;;;;21.22;41.46;99217.74;;;;-47
2019/11/17 15:23:28;;;;;;;7.65;6.73;;;;;;;21.03;41.14;99220.25;;;;-45
2019/11/17 15:26:28;;;;;;;8.03;7.23;;;;;;;20.89;40.41;99212.45;;;;-46
2019/11/17 15:29:28;;;;;;;12.37;6.61;;;;;;;20.99;41.74;99182.86;;;;-49
2019/11/17 15:32:28;;;;;;;6.34;5.74;;;;;;;21.11;42.34;99198.17;;;;-52
2019/11/17 15:35:28;;;;;;;9.08;7.96;;;;;;;20.58;39.44;99211.54;;;;-49
2019/11/17 15:38:28;;;;;;;8.67;7.81;;;;;;;20.38;40.09;99214.66;;;;-50
2019/11/17 15:41:28;;;;;;;7.26;6.07;;;;;;;20.58;40.49;99211.78;;;;-52
2019/11/17 15:44:28;;;;;;;5.43;4.93;;;;;;;20.68;40.49;99215.48;;;;-52
2019/11/17 15:47:29;;;;;;;4.58;4.18;;;;;;;20.75;40.85;99205.06;;;;-51
2019/11/17 15:50:28;;;;;;;4.43;3.75;;;;;;;20.78;40.94;99212.91;;;;-52
2019/11/17 15:53:29;;;;;;;5.01;3.39;;;;;;;20.80;41.23;99202.00;;;;-51
2019/11/17 15:56:28;;;;;;;3.82;3.21;;;;;;;20.83;41.26;99196.25;;;;-54
2019/11/17 15:59:28;;;;;;;3.24;2.94;;;;;;;20.85;41.39;99203.61;;;;-57
2019/11/17 16:03:31;;;;;;;3.32;3.02;;;;;;;20.86;41.48;99215.27;;;;-50
2019/11/17 16:06:29;;;;;;;3.45;2.93;;;;;;;20.89;41.88;99214.48;;;;-49
2019/11/17 16:09:28;;;;;;;5.08;2.91;;;;;;;20.97;42.16;99200.95;;;;-47
2019/11/17 16:12:29;;;;;;;3.89;2.51;;;;;;;21.04;42.76;99199.16;;;;-52
2019/11/17 16:15:28;;;;;;;2.99;2.69;;;;;;;21.12;42.80;99202.29;;;;-53
2019/11/17 16:18:28;;;;;;;5.30;2.71;;;;;;;21.15;43.07;99195.63;;;;-52
2019/11/17 16:21:28;;;;;;;3.02;2.60;;;;;;;21.21;43.24;99204.97;;;;-51
2019/11/17 16:24:28;;;;;;;6.10;2.52;;;;;;;21.24;43.30;99212.75;;;;-49
2019/11/17 16:27:29;;;;;;;4.29;2.59;;;;;;;21.27;43.43;99212.52;;;;-51
2019/11/17 16:30:29;;;;;;;3.70;2.61;;;;;;;21.28;42.85;99213.79;;;;-51
2019/11/17 16:33:28;;;;;;;4.21;2.49;;;;;;;21.30;43.30;99216.20;;;;-51
2019/11/17 16:36:29;;;;;;;2.97;2.60;;;;;;;21.33;43.45;99204.23;;;;-51
2019/11/17 16:39:28;;;;;;;3.39;2.38;;;;;;;21.37;43.61;99213.67;;;;-51
2019/11/17 16:42:28;;;;;;;2.58;2.29;;;;;;;21.39;43.72;99218.03;;;;-51
2019/11/17 16:45:28;;;;;;;2.71;2.40;;;;;;;21.41;44.03;99224.78;;;;-51
2019/11/17 16:48:28;;;;;;;4.40;2.49;;;;;;;21.42;43.85;99214.45;;;;-51
2019/11/17 16:51:28;;;;;;;3.61;2.53;;;;;;;21.46;43.95;99214.77;;;;-50
2019/11/17 16:54:28;;;;;;;2.97;2.55;;;;;;;21.44;43.04;99209.59;;;;-50
2019/11/17 16:57:29;;;;;;;3.49;2.51;;;;;;;21.43;42.73;99212.96;;;;-51
2019/11/17 17:00:29;;;;;;;6.27;2.83;;;;;;;21.45;43.29;99217.20;;;;-53